createdAt,value
2023-10-20T00:00:10.176Z,95.12
2023-10-20T00:02:59.079Z,95.00
2023-10-20T00:05:27.351Z,94.40
2023-10-20T00:07:54.784Z,94.78
2023-10-20T00:10:22.787Z,95.04
2023-10-20T00:12:50.028Z,95.07
2023-10-20T00:15:19.500Z,94.57
2023-10-20T00:17:48.746Z,95.18
2023-10-20T00:20:22.164Z,96.42
2023-10-20T00:22:49.565Z,95.73
2023-10-20T00:25:17.429Z,94.89
2023-10-20T00:27:44.938Z,94.43
2023-10-20T00:30:13.042Z,93.97
2023-10-20T00:32:41.177Z,94.13
2023-10-20T00:35:09.897Z,94.34
2023-10-20T00:37:38.778Z,94.03
2023-10-20T00:40:07.393Z,93.92
2023-10-20T00:42:34.903Z,94.06
2023-10-20T00:45:02.816Z,93.35
2023-10-20T00:47:31.251Z,92.85
2023-10-20T00:50:00.473Z,92.13
2023-10-20T00:52:29.851Z,92.08
2023-10-20T00:55:00.754Z,90.75
2023-10-20T00:57:28.328Z,90.50
2023-10-20T00:59:56.238Z,90.50
2023-10-20T01:02:23.757Z,90.17
2023-10-20T01:04:51.619Z,90.77
2023-10-20T01:07:19.008Z,91.33
2023-10-20T01:09:46.892Z,90.65
2023-10-20T01:12:15.912Z,90.73
2023-10-20T01:14:43.938Z,90.76
2023-10-20T01:17:11.489Z,90.74
2023-10-20T01:19:39.314Z,90.97
2023-10-20T01:22:06.853Z,89.92
2023-10-20T01:24:36.309Z,89.84
2023-10-20T01:27:03.868Z,89.66
2023-10-20T01:29:32.412Z,89.90
2023-10-20T01:31:59.846Z,90.04
2023-10-20T01:34:27.607Z,90.34
2023-10-20T01:36:54.986Z,90.92
2023-10-20T01:39:22.660Z,90.83
2023-10-20T01:41:54.756Z,90.63
2023-10-20T01:44:22.246Z,90.63
2023-10-20T01:46:49.885Z,89.69
2023-10-20T01:49:18.690Z,90.54
2023-10-20T01:51:46.091Z,89.91
2023-10-20T01:54:13.882Z,90.32
2023-10-20T01:56:41.269Z,90.36
2023-10-20T01:59:10.617Z,91.22
2023-10-20T02:01:37.949Z,91.21
2023-10-20T02:04:06.062Z,91.01
2023-10-20T02:06:33.481Z,91.19
2023-10-20T02:09:01.297Z,91.98
2023-10-20T02:11:28.758Z,92.35
2023-10-20T02:13:56.434Z,91.86
2023-10-20T02:16:25.192Z,93.42
2023-10-20T02:18:57.711Z,93.07
2023-10-20T02:21:25.093Z,92.97
2023-10-20T02:23:52.963Z,92.85
2023-10-20T02:26:20.367Z,92.49
2023-10-20T02:28:48.387Z,91.63
2023-10-20T02:31:17.170Z,91.48
2023-10-20T02:33:46.853Z,91.79
2023-10-20T02:36:17.142Z,91.24
2023-10-20T02:38:45.100Z,91.32
2023-10-20T02:41:12.652Z,90.88
2023-10-20T02:43:40.425Z,90.68
2023-10-20T02:46:08.389Z,91.10
2023-10-20T02:48:36.215Z,92.06
2023-10-20T02:51:11.144Z,92.80
2023-10-20T02:53:38.904Z,93.15
2023-10-20T02:56:11.560Z,92.50
2023-10-20T02:58:39.476Z,92.53
2023-10-20T03:01:07.551Z,92.98
2023-10-20T03:03:35.621Z,93.25
2023-10-20T03:06:04.515Z,93.24
2023-10-20T03:08:39.426Z,93.20
2023-10-20T03:11:07.619Z,93.33
2023-10-20T03:13:35.760Z,93.98
2023-10-20T03:16:03.230Z,93.61
2023-10-20T03:18:31.142Z,93.37
2023-10-20T03:21:00.470Z,93.27
2023-10-20T03:23:28.410Z,92.55
2023-10-20T03:25:57.599Z,92.30
2023-10-20T03:28:25.630Z,91.83
2023-10-20T03:30:53.100Z,90.73
2023-10-20T03:33:20.738Z,91.38
2023-10-20T03:35:48.157Z,90.92
2023-10-20T03:38:16.067Z,90.59
2023-10-20T03:40:43.638Z,90.99
2023-10-20T03:43:13.135Z,91.25
2023-10-20T03:45:41.103Z,91.75
2023-10-20T03:48:09.685Z,91.24
2023-10-20T03:50:37.707Z,91.73
2023-10-20T03:53:05.785Z,92.25
2023-10-20T03:55:33.300Z,91.83
2023-10-20T03:58:01.445Z,91.90
2023-10-20T04:00:30.433Z,90.97
2023-10-20T04:02:58.688Z,91.02
2023-10-20T04:05:26.170Z,90.59
2023-10-20T04:07:54.062Z,90.40
2023-10-20T04:10:21.762Z,89.97
2023-10-20T04:12:50.634Z,90.53
2023-10-20T04:15:18.117Z,90.31
2023-10-20T04:17:48.242Z,90.73
2023-10-20T04:20:15.752Z,90.74
2023-10-20T04:22:44.020Z,91.07
2023-10-20T04:25:11.433Z,90.88
2023-10-20T04:27:39.444Z,90.66
2023-10-20T04:30:08.093Z,91.63
2023-10-20T04:32:35.953Z,92.54
2023-10-20T04:35:05.390Z,92.05
2023-10-20T04:37:33.273Z,91.82
2023-10-20T04:40:00.761Z,91.81
2023-10-20T04:42:28.494Z,90.99
2023-10-20T04:44:55.910Z,90.71
2023-10-20T04:47:23.752Z,90.26
2023-10-20T04:49:51.252Z,89.34
2023-10-20T04:52:23.907Z,89.64
2023-10-20T04:54:51.196Z,89.88
2023-10-20T04:57:19.439Z,90.03
2023-10-20T04:59:46.926Z,89.96
2023-10-20T05:02:14.902Z,89.73
2023-10-20T05:04:43.904Z,90.01
2023-10-20T05:07:11.932Z,90.40
2023-10-20T05:09:40.768Z,90.80
2023-10-20T05:12:08.580Z,91.37
2023-10-20T05:14:36.361Z,91.71
2023-10-20T05:17:04.372Z,90.73
2023-10-20T05:19:31.835Z,90.43
2023-10-20T05:21:59.806Z,90.61
2023-10-20T05:24:27.186Z,90.72
2023-10-20T05:26:56.413Z,90.91
2023-10-20T05:29:25.014Z,90.93
2023-10-20T05:31:57.321Z,91.00
2023-10-20T05:34:24.875Z,90.85
2023-10-20T05:36:52.685Z,90.87
2023-10-20T05:39:23.175Z,90.39
2023-10-20T05:41:50.994Z,90.38
2023-10-20T05:44:20.026Z,89.94
2023-10-20T05:46:47.736Z,90.23
2023-10-20T05:49:15.040Z,90.48
2023-10-20T05:51:42.850Z,91.19
2023-10-20T05:54:10.192Z,91.57
2023-10-20T05:56:38.035Z,91.57
2023-10-20T05:59:05.562Z,91.60
2023-10-20T06:01:34.843Z,92.12
2023-10-20T06:04:02.491Z,92.71
2023-10-20T06:06:31.511Z,93.35
2023-10-20T06:08:59.030Z,92.83
2023-10-20T06:11:26.775Z,92.76
2023-10-20T06:13:54.286Z,92.71
2023-10-20T06:16:22.010Z,92.55
2023-10-20T06:18:50.808Z,93.02
2023-10-20T06:21:18.699Z,93.35
2023-10-20T06:23:46.248Z,93.43
2023-10-20T06:26:14.257Z,93.46
2023-10-20T06:28:41.806Z,93.71
2023-10-20T06:31:09.866Z,93.56
2023-10-20T06:33:37.377Z,92.84
2023-10-20T06:36:06.686Z,93.06
2023-10-20T06:38:34.057Z,92.86
2023-10-20T06:41:01.854Z,93.00
2023-10-20T06:43:33.263Z,93.02
2023-10-20T06:46:01.631Z,92.81
2023-10-20T06:48:30.334Z,92.81
2023-10-20T06:50:58.425Z,92.92
2023-10-20T06:53:27.621Z,93.08
2023-10-20T06:56:12.957Z,93.47
2023-10-20T06:58:42.399Z,94.29
2023-10-20T07:01:10.292Z,94.18
2023-10-20T07:03:37.855Z,94.05
2023-10-20T07:06:06.142Z,94.51
2023-10-20T07:08:35.159Z,94.55
2023-10-20T07:11:03.286Z,94.97
2023-10-20T07:13:32.135Z,95.86
2023-10-20T07:15:59.987Z,94.77
2023-10-20T07:18:27.811Z,94.38
2023-10-20T07:20:57.761Z,93.41
2023-10-20T07:23:26.646Z,93.23
2023-10-20T07:25:56.246Z,93.15
2023-10-20T07:28:23.596Z,92.35
2023-10-20T07:30:51.436Z,92.44
2023-10-20T07:33:18.947Z,92.60
2023-10-20T07:35:47.192Z,93.74
2023-10-20T07:38:14.635Z,94.32
2023-10-20T07:40:42.593Z,95.39
2023-10-20T07:43:11.787Z,95.12
2023-10-20T07:45:40.333Z,94.92
2023-10-20T07:48:08.369Z,95.60
2023-10-20T07:50:36.449Z,95.34
2023-10-20T07:53:04.078Z,95.42
2023-10-20T07:55:31.939Z,95.57
2023-10-20T07:57:59.404Z,96.77
2023-10-20T08:00:33.268Z,96.61
2023-10-20T08:03:00.732Z,95.67
2023-10-20T08:05:28.888Z,94.90
2023-10-20T08:07:56.848Z,94.73
2023-10-20T08:10:24.591Z,95.00
2023-10-20T08:12:52.057Z,94.57
2023-10-20T08:15:19.995Z,95.47
2023-10-20T08:17:49.067Z,95.30
2023-10-20T08:20:17.190Z,95.06
2023-10-20T08:22:47.255Z,93.63
2023-10-20T08:25:15.346Z,92.82
2023-10-20T08:27:46.150Z,92.42
2023-10-20T08:30:14.789Z,93.06
2023-10-20T08:32:42.362Z,93.96
2023-10-20T08:35:11.685Z,94.36
2023-10-20T08:37:39.273Z,96.09
2023-10-20T08:40:08.120Z,96.17
2023-10-20T08:42:37.871Z,95.84
2023-10-20T08:45:09.168Z,95.85
2023-10-20T08:47:37.026Z,96.91
2023-10-20T08:50:06.536Z,97.50
2023-10-20T08:52:40.136Z,95.92
2023-10-20T08:55:08.880Z,96.36
2023-10-20T08:57:36.292Z,95.76
2023-10-20T09:00:05.018Z,95.61
2023-10-20T09:02:41.280Z,96.39
2023-10-20T09:05:11.477Z,96.66
2023-10-20T09:07:40.387Z,95.91
2023-10-20T09:10:08.614Z,96.12
2023-10-20T09:12:36.282Z,95.99
2023-10-20T09:15:04.713Z,96.10
2023-10-20T09:17:32.184Z,96.55
2023-10-20T09:20:05.630Z,96.74
2023-10-20T09:22:33.152Z,96.84
2023-10-20T09:25:07.359Z,96.10
2023-10-20T09:27:34.723Z,95.54
2023-10-20T09:30:04.298Z,95.97
2023-10-20T09:32:31.794Z,94.90
2023-10-20T09:35:01.138Z,95.50
2023-10-20T09:37:31.021Z,96.28
2023-10-20T09:40:06.096Z,96.24
2023-10-20T09:42:46.412Z,95.53
2023-10-20T09:45:17.036Z,95.37
2023-10-20T09:47:48.259Z,94.64
2023-10-20T09:50:16.873Z,95.15
2023-10-20T09:52:44.388Z,95.62
2023-10-20T09:55:14.160Z,96.61
2023-10-20T09:57:44.090Z,96.47
2023-10-20T10:00:13.252Z,95.93
2023-10-20T10:02:40.958Z,96.22
2023-10-20T10:05:10.392Z,96.70
2023-10-20T10:07:37.896Z,96.33
2023-10-20T10:10:08.416Z,97.24
2023-10-20T10:12:59.502Z,97.29
2023-10-20T10:15:37.750Z,97.77
2023-10-20T10:18:10.307Z,98.69
2023-10-20T10:20:43.116Z,99.25
2023-10-20T10:23:11.647Z,98.46
2023-10-20T10:25:41.550Z,98.11
2023-10-20T10:28:14.956Z,97.57
2023-10-20T10:30:44.012Z,96.50
2023-10-20T10:33:12.836Z,96.33
2023-10-20T10:35:41.254Z,95.58
2023-10-20T10:38:19.245Z,96.25
2023-10-20T10:40:48.112Z,97.10
2023-10-20T10:43:19.072Z,97.19
2023-10-20T10:45:54.102Z,96.94
2023-10-20T10:48:25.456Z,96.83
2023-10-20T10:50:53.625Z,96.84
2023-10-20T10:53:21.240Z,97.79
2023-10-20T10:55:49.036Z,98.07
2023-10-20T10:58:18.191Z,97.80
2023-10-20T11:00:47.002Z,96.84
2023-10-20T11:03:15.484Z,95.88
2023-10-20T11:05:44.221Z,96.00
2023-10-20T11:08:15.986Z,96.74
2023-10-20T11:10:46.461Z,97.72
2023-10-20T11:13:14.529Z,97.71
2023-10-20T11:15:44.302Z,97.22
2023-10-20T11:18:12.268Z,96.38
2023-10-20T11:20:41.527Z,97.03
2023-10-20T11:23:11.183Z,96.62
2023-10-20T11:25:39.874Z,96.12
2023-10-20T11:28:08.062Z,95.34
2023-10-20T11:30:37.384Z,95.14
2023-10-20T11:33:06.754Z,95.33
2023-10-20T11:35:34.907Z,95.62
2023-10-20T11:38:02.470Z,94.89
2023-10-20T11:40:30.689Z,95.64
2023-10-20T11:43:02.312Z,95.52
2023-10-20T11:45:30.689Z,96.29
2023-10-20T11:47:58.262Z,96.27
2023-10-20T11:50:31.956Z,95.47
2023-10-20T11:53:02.660Z,94.91
2023-10-20T11:55:32.433Z,93.93
2023-10-20T11:58:01.483Z,94.54
2023-10-20T12:00:30.065Z,95.75
2023-10-20T12:02:57.780Z,95.94
2023-10-20T12:05:27.354Z,95.69
2023-10-20T12:07:54.866Z,96.59
2023-10-20T12:10:25.279Z,96.29
2023-10-20T12:12:53.860Z,95.96
2023-10-20T12:15:25.143Z,95.53
2023-10-20T12:18:16.734Z,95.64
2023-10-20T12:20:45.989Z,94.74
2023-10-20T12:23:15.958Z,95.29
2023-10-20T12:25:43.810Z,94.60
2023-10-20T12:28:14.536Z,94.11
2023-10-20T12:30:42.562Z,94.03
2023-10-20T12:33:10.298Z,93.98
2023-10-20T12:35:38.125Z,94.04
2023-10-20T12:38:10.951Z,94.76
2023-10-20T12:40:38.997Z,94.82
2023-10-20T12:43:08.380Z,93.74
2023-10-20T12:45:37.939Z,93.12
2023-10-20T12:48:06.055Z,92.53
2023-10-20T12:50:34.382Z,92.84
2023-10-20T12:53:01.881Z,93.64
2023-10-20T12:55:35.106Z,94.04
2023-10-20T12:58:03.780Z,94.79
2023-10-20T13:00:31.736Z,94.15
2023-10-20T13:02:59.254Z,94.30
2023-10-20T13:05:27.216Z,94.06
2023-10-20T13:07:54.755Z,92.71
2023-10-20T13:10:22.728Z,93.00
2023-10-20T13:12:51.615Z,93.96
2023-10-20T13:15:19.621Z,93.36
2023-10-20T13:17:47.165Z,93.22
2023-10-20T13:20:15.157Z,94.45
2023-10-20T13:22:42.637Z,94.34
2023-10-20T13:25:13.208Z,94.09
2023-10-20T13:27:42.462Z,93.32
2023-10-20T13:30:12.504Z,92.91
2023-10-20T13:32:40.018Z,93.11
2023-10-20T13:35:08.644Z,92.78
2023-10-20T13:37:36.344Z,92.78
2023-10-20T13:40:05.098Z,93.77
2023-10-20T13:42:32.613Z,94.32
2023-10-20T13:45:00.642Z,94.71
2023-10-20T13:47:29.564Z,94.87
2023-10-20T13:49:57.374Z,95.35
2023-10-20T13:52:24.919Z,95.26
2023-10-20T13:54:52.857Z,95.93
2023-10-20T13:57:20.257Z,96.03
2023-10-20T13:59:48.021Z,96.21
2023-10-20T14:02:15.463Z,95.70
2023-10-20T14:04:44.793Z,94.82
2023-10-20T14:07:12.161Z,94.12
2023-10-20T14:09:40.122Z,93.93
2023-10-20T14:12:07.783Z,93.87
2023-10-20T14:14:35.741Z,95.08
2023-10-20T14:17:05.085Z,95.14
2023-10-20T14:19:33.189Z,95.08
2023-10-20T14:22:05.901Z,95.19
2023-10-20T14:24:33.882Z,95.56
2023-10-20T14:27:01.371Z,96.19
2023-10-20T14:29:29.162Z,96.69
2023-10-20T14:31:56.731Z,96.20
2023-10-20T14:34:24.666Z,97.43
2023-10-20T14:36:52.032Z,97.57
2023-10-20T14:39:21.210Z,97.87
2023-10-20T14:41:48.718Z,97.38
2023-10-20T14:44:16.745Z,97.09
2023-10-20T14:46:44.178Z,97.04
2023-10-20T14:49:11.889Z,97.09
2023-10-20T14:51:39.449Z,97.40
2023-10-20T14:54:07.251Z,97.82
2023-10-20T14:56:36.271Z,97.72
2023-10-20T14:59:04.204Z,97.31
2023-10-20T15:01:31.844Z,96.33
2023-10-20T15:04:07.607Z,95.74
2023-10-20T15:06:45.206Z,96.30
2023-10-20T15:09:13.153Z,94.89
2023-10-20T15:11:41.995Z,94.05
2023-10-20T15:14:09.773Z,93.23
2023-10-20T15:16:37.190Z,92.91
2023-10-20T15:19:05.344Z,93.91
2023-10-20T15:21:32.804Z,94.13
2023-10-20T15:24:00.617Z,94.63
2023-10-20T15:26:28.206Z,94.55
2023-10-20T15:28:57.389Z,93.77
2023-10-20T15:31:25.032Z,92.98
2023-10-20T15:33:53.059Z,93.87
2023-10-20T15:36:20.521Z,94.37
2023-10-20T15:38:50.366Z,95.37
2023-10-20T15:41:18.059Z,95.69
2023-10-20T15:43:46.111Z,97.44
2023-10-20T15:46:25.007Z,98.76
2023-10-20T15:48:53.536Z,99.66
2023-10-20T15:51:22.161Z,98.48
2023-10-20T15:53:50.551Z,97.51
2023-10-20T15:56:23.227Z,97.38
2023-10-20T15:58:54.660Z,96.46
2023-10-20T16:01:25.927Z,96.38
2023-10-20T16:03:54.192Z,96.81
2023-10-20T16:06:27.646Z,97.00
2023-10-20T16:08:59.102Z,98.23
2023-10-20T16:11:27.272Z,98.20
2023-10-20T16:13:55.754Z,98.24
2023-10-20T16:16:27.719Z,98.89
2023-10-20T16:18:58.703Z,99.22
2023-10-20T16:21:26.547Z,98.82
2023-10-20T16:23:55.855Z,98.99
2023-10-20T16:26:23.545Z,99.16
2023-10-20T16:28:52.675Z,99.07
2023-10-20T16:31:20.222Z,98.92
2023-10-20T16:33:52.544Z,99.55
2023-10-20T16:36:23.498Z,99.30
2023-10-20T16:39:00.202Z,99.23
2023-10-20T16:41:43.312Z,98.63
2023-10-20T16:44:25.276Z,98.75
2023-10-20T16:46:52.872Z,98.55
2023-10-20T16:49:36.146Z,99.03
2023-10-20T16:52:07.495Z,98.61
2023-10-20T16:54:39.464Z,99.25
2023-10-20T16:57:18.583Z,97.83
2023-10-20T16:59:50.799Z,97.91
2023-10-20T17:02:18.219Z,97.58
2023-10-20T17:04:47.350Z,96.59
2023-10-20T17:07:14.831Z,96.53
2023-10-20T17:10:00.827Z,98.29
2023-10-20T17:12:38.334Z,98.47
2023-10-20T17:15:17.356Z,97.36
2023-10-20T17:17:46.959Z,97.61
2023-10-20T17:20:24.508Z,98.90
2023-10-20T17:22:52.712Z,99.82
2023-10-20T17:25:24.715Z,99.80
2023-10-20T17:27:56.370Z,99.20
2023-10-20T17:30:27.280Z,98.79
2023-10-20T17:32:54.802Z,99.14
2023-10-20T17:35:34.333Z,98.83
2023-10-20T17:38:02.165Z,100.00
2023-10-20T17:40:29.962Z,99.78
2023-10-20T17:42:57.627Z,99.71
2023-10-20T17:45:25.613Z,99.49
2023-10-20T17:47:53.774Z,99.52
2023-10-20T17:50:23.271Z,99.70
2023-10-20T17:52:51.006Z,100.00
2023-10-20T17:55:18.961Z,100.00
2023-10-20T17:57:46.850Z,100.00
2023-10-20T18:00:16.176Z,100.00
2023-10-20T18:02:43.845Z,100.00
2023-10-20T18:05:11.961Z,99.62
2023-10-20T18:07:42.965Z,98.96
2023-10-20T18:10:11.088Z,99.21
2023-10-20T18:12:38.702Z,98.85
2023-10-20T18:15:08.803Z,98.86
2023-10-20T18:17:36.311Z,98.48
2023-10-20T18:20:04.956Z,99.13
2023-10-20T18:22:32.398Z,98.74
2023-10-20T18:25:01.741Z,98.65
2023-10-20T18:27:29.192Z,98.49
2023-10-20T18:29:56.986Z,98.34
2023-10-20T18:32:24.460Z,98.72
2023-10-20T18:34:52.190Z,97.93
2023-10-20T18:37:19.733Z,97.45
2023-10-20T18:39:47.738Z,98.24
2023-10-20T18:42:19.477Z,97.97
2023-10-20T18:44:47.373Z,97.39
2023-10-20T18:47:15.179Z,96.91
2023-10-20T18:49:46.021Z,96.32
2023-10-20T18:52:14.220Z,95.32
2023-10-20T18:54:42.597Z,94.07
2023-10-20T18:57:11.452Z,93.37
2023-10-20T18:59:44.965Z,93.49
2023-10-20T19:02:12.471Z,93.41
2023-10-20T19:04:40.800Z,94.13
2023-10-20T19:07:08.238Z,94.80
2023-10-20T19:09:45.312Z,95.31
2023-10-20T19:12:13.002Z,95.29
2023-10-20T19:14:42.829Z,94.80
2023-10-20T19:17:10.493Z,93.85
2023-10-20T19:19:39.668Z,93.85
2023-10-20T19:22:08.417Z,94.09
2023-10-20T19:24:36.276Z,94.31
2023-10-20T19:27:04.588Z,93.70
2023-10-20T19:29:32.600Z,92.95
2023-10-20T19:32:01.651Z,93.22
2023-10-20T19:34:29.569Z,93.01
2023-10-20T19:36:57.256Z,93.40
2023-10-20T19:39:25.151Z,94.23
2023-10-20T19:41:52.650Z,95.00
2023-10-20T19:44:20.671Z,97.26
2023-10-20T19:46:52.329Z,97.02
2023-10-20T19:49:21.655Z,96.98
2023-10-20T19:51:49.077Z,96.38
2023-10-20T19:54:16.874Z,96.17
2023-10-20T19:56:44.395Z,96.39
2023-10-20T19:59:12.342Z,96.29
2023-10-20T20:01:39.872Z,95.89
2023-10-20T20:04:07.973Z,96.54
2023-10-20T20:06:37.019Z,96.49
2023-10-20T20:09:05.157Z,97.99
2023-10-20T20:11:32.768Z,98.43
2023-10-20T20:14:04.887Z,98.92
2023-10-20T20:16:32.549Z,99.34
2023-10-20T20:19:00.492Z,98.15
2023-10-20T20:21:28.012Z,97.09
2023-10-20T20:23:57.423Z,97.01
2023-10-20T20:26:24.854Z,96.27
2023-10-20T20:28:52.750Z,96.89
2023-10-20T20:31:20.237Z,97.28
2023-10-20T20:33:53.030Z,97.36
2023-10-20T20:36:20.597Z,98.13
2023-10-20T20:38:48.497Z,97.27
2023-10-20T20:41:17.390Z,96.03
2023-10-20T20:43:45.419Z,95.15
2023-10-20T20:46:12.983Z,94.67
2023-10-20T20:48:40.962Z,94.32
2023-10-20T20:51:09.973Z,93.91
2023-10-20T20:53:37.879Z,93.87
2023-10-20T20:56:05.896Z,93.48
2023-10-20T20:58:39.155Z,92.76
2023-10-20T21:01:10.247Z,92.54
2023-10-20T21:03:40.086Z,92.40
2023-10-20T21:06:10.077Z,91.47
2023-10-20T21:08:38.076Z,91.44
2023-10-20T21:11:07.240Z,90.84
2023-10-20T21:13:38.004Z,90.59
2023-10-20T21:16:06.454Z,90.28
2023-10-20T21:18:35.456Z,90.01
2023-10-20T21:21:08.494Z,89.56
2023-10-20T21:23:36.576Z,89.06
2023-10-20T21:26:04.427Z,89.26
2023-10-20T21:28:32.513Z,89.75
2023-10-20T21:31:03.872Z,89.42
2023-10-20T21:33:34.935Z,89.88
2023-10-20T21:36:05.702Z,89.61
2023-10-20T21:38:33.659Z,89.91
2023-10-20T21:41:01.225Z,89.57
2023-10-20T21:43:29.223Z,88.93
2023-10-20T21:45:57.457Z,88.52
2023-10-20T21:48:27.741Z,88.65
2023-10-20T21:50:56.176Z,88.24
2023-10-20T21:53:24.276Z,88.24
2023-10-20T21:55:59.936Z,88.75
2023-10-20T21:58:27.920Z,89.06
2023-10-20T22:00:55.478Z,88.92
2023-10-20T22:03:24.050Z,89.31
2023-10-20T22:05:53.064Z,89.03
2023-10-20T22:08:21.012Z,89.53
2023-10-20T22:10:48.494Z,89.75
2023-10-20T22:13:16.542Z,89.90
2023-10-20T22:15:43.921Z,89.93
2023-10-20T22:18:11.824Z,89.85
2023-10-20T22:20:40.034Z,88.97
2023-10-20T22:23:12.993Z,89.65
2023-10-20T22:25:40.513Z,89.91
2023-10-20T22:28:08.328Z,90.03
2023-10-20T22:30:35.690Z,90.43
2023-10-20T22:33:04.037Z,90.10
2023-10-20T22:35:31.609Z,90.71
2023-10-20T22:37:59.541Z,90.10
2023-10-20T22:40:28.589Z,89.65
2023-10-20T22:42:56.355Z,88.94
2023-10-20T22:45:23.626Z,88.74
2023-10-20T22:47:51.554Z,89.61
2023-10-20T22:50:19.441Z,89.08
2023-10-20T22:52:47.511Z,89.63
2023-10-20T22:55:15.111Z,90.10
2023-10-20T22:57:47.836Z,90.37
2023-10-20T23:00:16.770Z,91.05
2023-10-20T23:02:44.649Z,90.72
2023-10-20T23:05:12.254Z,90.35
2023-10-20T23:07:40.260Z,89.46
2023-10-20T23:10:08.130Z,89.63
2023-10-20T23:12:36.101Z,89.89
2023-10-20T23:15:05.786Z,89.90
2023-10-20T23:17:33.707Z,89.39
2023-10-20T23:20:01.158Z,89.10
2023-10-20T23:22:29.063Z,88.76
2023-10-20T23:24:56.441Z,88.81
2023-10-20T23:27:24.204Z,88.26
2023-10-20T23:29:51.655Z,87.96
2023-10-20T23:32:20.776Z,87.40
2023-10-20T23:34:48.129Z,87.60
2023-10-20T23:37:15.870Z,87.39
2023-10-20T23:39:43.308Z,87.44
2023-10-20T23:42:11.246Z,87.68
2023-10-20T23:44:38.743Z,87.60
2023-10-20T23:47:06.740Z,87.43
2023-10-20T23:49:35.752Z,88.16
2023-10-20T23:52:03.908Z,87.03
2023-10-20T23:54:31.297Z,86.07
2023-10-20T23:56:59.108Z,85.92
2023-10-20T23:59:26.605Z,86.53
